Impacts METAR Board
IDs:

KDEN - Denver Intl, CO, US

Updated at: 1800 UTC 26 Oct 2021
Potential Impact None Slight Moderate High
Time 26/06Z 26/07Z 26/08Z 26/09Z 26/10Z 26/11Z 26/12Z 26/13Z 26/14Z 26/15Z 26/16Z 26/17Z 26/18Z
Temp52 66 56 55 55 55 62 56 62 68 71 73 76
Dewpt30 25 25 25 26 27 27 27 27 28 28 28 27
Altim29.69 29.68 29.67 29.65 29.62 29.59 29.56 29.55 29.53 29.51 29.47 29.44 29.42
VIS10 10 10 10 10 10 10 10 10 10 10 10 10
CIG-- -- -- -- -- -- -- -- -- 220 220 -- --
CoverSCTSCTSCTFEWFEWFEWSCTSCTSCTBKNBKNSCTSCT
FltCatVFRVFRVFRVFRVFRVFRVFRVFRVFRVFRVFRVFRVFR
WX--------------------------
WDir50180160150160160180170170180180210210
WSpd5 17 13 13 12 13 14 13 15 18 20 23 23
WGst-- -- -- -- -- -- -- -- -- 26 29 33 32
Raw hourly METARs
KDEN 260553Z 05005KT 10SM SCT250 11/M01 A2969 RMK AO2 SLP004 T01111011 10222 20100 $
KDEN 260653Z 18017KT 10SM SCT250 19/M04 A2968 RMK AO2 PK WND 19026/0634 WSHFT 0608 SLP973 T01891039 402780044 $
KDEN 260753Z 16013KT 10SM SCT250 13/M04 A2967 RMK AO2 SLP974 T01331039 $
KDEN 260853Z 15013KT 10SM FEW250 13/M04 A2965 RMK AO2 SLP966 T01281039 58014 $
KDEN 260953Z 16012KT 10SM FEW220 13/M03 A2962 RMK AO2 SLP951 T01281033 $
KDEN 261053Z 16013KT 10SM FEW220 13/M03 A2959 RMK AO2 SLP942 T01281028 $
KDEN 261153Z 18014KT 10SM SCT220 17/M03 A2956 RMK AO2 SLP933 T01671028 10189 20106 56024 $
KDEN 261253Z 17013KT 10SM FEW180 SCT220 13/M03 A2955 RMK AO2 SLP946 T01331028
KDEN 261353Z 17015KT 10SM FEW090 SCT200 17/M03 A2953 RMK AO2 SLP941 T01671028
KDEN 261453Z 18018G26KT 10SM FEW090 BKN220 20/M02 A2951 RMK AO2 PK WND 17026/1449 SLP924 T02001022 58016
KDEN 261553Z 18020G29KT 10SM FEW090 BKN220 22/M02 A2947 RMK AO2 PK WND 17029/1550 SLP904 T02171022
KDEN 261653Z 21023G33KT 10SM FEW090 SCT220 23/M02 A2944 RMK AO2 PK WND 20033/1649 SLP895 T02281022
KDEN 261753Z 21023G32KT 10SM SCT100 SCT220 24/M03 A2942 RMK AO2 PK WND 20037/1714 SLP892 T02441028 10244 20100 56024



Page loaded:  18:30 UTC  |   11:30 AM Pacific  |   12:30 PM Mountain  |   01:30 PM Central  |   02:30 PM Eastern

 

ADVISORIES

FORECASTS

FORECASTS

OBSERVATIONS

USER TOOLS

ABOUT US